This is the latest recevied weather packets stored in our database for station/object VK3MAK-1. If no packets are shown the sender has not sent any weather packets the latest 10 day(s).
| Time | Temp. | Humidity | Pressure | Rain* | Wind** | Luminosity | Snow |
|---|---|---|---|---|---|---|---|
| 1777821003 | 11.67° C | 78% | 1009.1 hPa | 0 mm | 4.02 m/s, 0° | - | - |
| 1777820403 | 12.22° C | 77% | 1009.4 hPa | 0 mm | 5.36 m/s, 0° | - | - |
| 1777819803 | 12.22° C | 77% | 1009.4 hPa | 0 mm | 5.36 m/s, 0° | - | - |
| 1777819203 | 12.22° C | 77% | 1009.4 hPa | 0 mm | 5.36 m/s, 0° | - | - |
| 1777818604 | 12.22° C | 79% | 1009.8 hPa | 0 mm | 4.47 m/s, 0° | - | - |
| 1777818003 | 12.22° C | 79% | 1009.8 hPa | 0 mm | 4.47 m/s, 0° | - | - |
| 1777817403 | 12.22° C | 79% | 1009.8 hPa | 0 mm | 4.47 m/s, 0° | - | - |
| 1777816808 | 11.11° C | 79% | 1010.1 hPa | 0 mm | 3.58 m/s, 0° | - | - |
| 1777816203 | 11.11° C | 79% | 1010.1 hPa | 0 mm | 3.58 m/s, 0° | - | - |
| 1777815604 | 11.11° C | 79% | 1010.1 hPa | 0 mm | 3.58 m/s, 0° | - | - |
| 1777815004 | 10.56° C | 90% | 1010.5 hPa | 0 mm | 2.24 m/s, 23° | - | - |
| 1777814404 | 10.56° C | 90% | 1010.5 hPa | 0 mm | 2.24 m/s, 23° | - | - |
| 1777813803 | 10.56° C | 90% | 1010.5 hPa | 0 mm | 2.24 m/s, 23° | - | - |
| 1777813203 | 10.56° C | 87% | 1010.7 hPa | 0 mm | 2.24 m/s, 23° | - | - |
| 1777812603 | 10.56° C | 87% | 1010.7 hPa | 0 mm | 2.24 m/s, 23° | - | - |
| 1777812004 | 10.56° C | 87% | 1010.7 hPa | 0 mm | 2.24 m/s, 23° | - | - |
| 1777811403 | 11.11° C | 84% | 1010.8 hPa | 0 mm | 2.24 m/s, 23° | - | - |
| 1777810803 | 11.11° C | 84% | 1010.8 hPa | 0 mm | 2.24 m/s, 23° | - | - |
| 1777810204 | 11.11° C | 84% | 1010.8 hPa | 0 mm | 2.24 m/s, 23° | - | - |
| 1777809603 | 12.22° C | 75% | 1010.7 hPa | 0 mm | 2.68 m/s, 23° | - | - |
| 1777809003 | 12.22° C | 75% | 1010.7 hPa | 0 mm | 2.68 m/s, 23° | - | - |
| 1777808406 | 12.22° C | 75% | 1010.7 hPa | 0 mm | 2.68 m/s, 23° | - | - |
| 1777807804 | 13.33° C | 70% | 1010.6 hPa | 0 mm | 3.58 m/s, 0° | - | - |
| 1777807204 | 13.33° C | 70% | 1010.6 hPa | 0 mm | 3.58 m/s, 0° | - | - |
| 1777806604 | 13.33° C | 70% | 1010.6 hPa | 0 mm | 3.58 m/s, 0° | - | - |
* Rain latest hour (hover to see other rain measurements)
** Current wind speed in m/s (hover to see current wind gust speed)